sensor_id;sensor_type;location;lat;lon;timestamp;pressure;altitude;pressure_sealevel;temperature;humidity
48888;BME280;42598;53.802;-1.632;2023-02-02T00:00:45;101222.05;;;4.51;100.00
48888;BME280;42598;53.802;-1.632;2023-02-02T00:03:13;101232.29;;;4.53;100.00
48888;BME280;42598;53.802;-1.632;2023-02-02T00:05:44;101226.77;;;4.46;100.00
48888;BME280;42598;53.802;-1.632;2023-02-02T00:08:12;101230.76;;;4.54;100.00
48888;BME280;42598;53.802;-1.632;2023-02-02T00:10:39;101232.90;;;4.37;100.00
48888;BME280;42598;53.802;-1.632;2023-02-02T00:13:06;101232.47;;;4.67;100.00
48888;BME280;42598;53.802;-1.632;2023-02-02T00:15:34;101234.87;;;4.48;100.00
48888;BME280;42598;53.802;-1.632;2023-02-02T00:18:01;101241.64;;;4.93;100.00
48888;BME280;42598;53.802;-1.632;2023-02-02T00:20:28;101244.70;;;4.87;100.00
48888;BME280;42598;53.802;-1.632;2023-02-02T00:22:56;101239.59;;;4.60;100.00
48888;BME280;42598;53.802;-1.632;2023-02-02T00:25:23;101247.47;;;4.19;100.00
48888;BME280;42598;53.802;-1.632;2023-02-02T00:27:50;101236.27;;;5.24;100.00
48888;BME280;42598;53.802;-1.632;2023-02-02T00:30:22;101231.27;;;5.29;100.00
48888;BME280;42598;53.802;-1.632;2023-02-02T00:32:49;101229.36;;;5.23;100.00
48888;BME280;42598;53.802;-1.632;2023-02-02T00:35:17;101232.93;;;4.72;100.00
48888;BME280;42598;53.802;-1.632;2023-02-02T00:37:47;101220.04;;;5.23;100.00
48888;BME280;42598;53.802;-1.632;2023-02-02T00:40:15;101215.66;;;5.03;100.00
48888;BME280;42598;53.802;-1.632;2023-02-02T00:42:42;101203.23;;;4.84;100.00
48888;BME280;42598;53.802;-1.632;2023-02-02T00:45:12;101211.69;;;4.59;100.00
48888;BME280;42598;53.802;-1.632;2023-02-02T00:47:40;101211.79;;;4.75;100.00
48888;BME280;42598;53.802;-1.632;2023-02-02T00:50:08;101213.56;;;4.93;100.00
48888;BME280;42598;53.802;-1.632;2023-02-02T00:52:35;101224.33;;;4.68;100.00
48888;BME280;42598;53.802;-1.632;2023-02-02T00:55:04;101232.86;;;4.72;100.00
48888;BME280;42598;53.802;-1.632;2023-02-02T00:57:31;101234.98;;;4.63;100.00
48888;BME280;42598;53.802;-1.632;2023-02-02T00:59:58;101228.30;;;4.38;100.00
48888;BME280;42598;53.802;-1.632;2023-02-02T01:02:26;101223.10;;;4.29;100.00
48888;BME280;42598;53.802;-1.632;2023-02-02T01:04:53;101222.26;;;4.55;100.00
48888;BME280;42598;53.802;-1.632;2023-02-02T01:07:20;101213.10;;;4.88;100.00
48888;BME280;42598;53.802;-1.632;2023-02-02T01:09:47;101199.99;;;5.79;100.00
48888;BME280;42598;53.802;-1.632;2023-02-02T01:12:14;101207.96;;;4.83;100.00
48888;BME280;42598;53.802;-1.632;2023-02-02T01:14:42;101214.97;;;5.35;100.00
48888;BME280;42598;53.802;-1.632;2023-02-02T01:17:09;101212.88;;;4.87;100.00
48888;BME280;42598;53.802;-1.632;2023-02-02T01:19:36;101209.04;;;4.92;100.00
48888;BME280;42598;53.802;-1.632;2023-02-02T01:22:03;101185.07;;;5.05;100.00
48888;BME280;42598;53.802;-1.632;2023-02-02T01:24:30;101184.63;;;5.07;100.00
48888;BME280;42598;53.802;-1.632;2023-02-02T01:26:58;101181.53;;;4.39;100.00
48888;BME280;42598;53.802;-1.632;2023-02-02T01:29:25;101172.60;;;4.24;100.00
48888;BME280;42598;53.802;-1.632;2023-02-02T01:31:52;101170.61;;;4.50;100.00
48888;BME280;42598;53.802;-1.632;2023-02-02T01:34:20;101170.57;;;4.34;100.00
48888;BME280;42598;53.802;-1.632;2023-02-02T01:36:52;101171.43;;;4.91;100.00
48888;BME280;42598;53.802;-1.632;2023-02-02T01:39:19;101168.62;;;4.41;100.00
48888;BME280;42598;53.802;-1.632;2023-02-02T01:41:47;101170.16;;;4.80;100.00
48888;BME280;42598;53.802;-1.632;2023-02-02T01:45:23;101173.22;;;4.47;100.00
48888;BME280;42598;53.802;-1.632;2023-02-02T01:47:53;101171.48;;;4.55;100.00
48888;BME280;42598;53.802;-1.632;2023-02-02T01:50:24;101178.71;;;4.34;100.00
48888;BME280;42598;53.802;-1.632;2023-02-02T01:52:54;101181.83;;;4.15;100.00
48888;BME280;42598;53.802;-1.632;2023-02-02T01:55:25;101201.05;;;4.28;100.00
48888;BME280;42598;53.802;-1.632;2023-02-02T01:57:56;101197.64;;;4.58;100.00
48888;BME280;42598;53.802;-1.632;2023-02-02T02:00:25;101202.61;;;4.20;100.00
48888;BME280;42598;53.802;-1.632;2023-02-02T02:03:09;101208.37;;;4.14;100.00
48888;BME280;42598;53.802;-1.632;2023-02-02T02:05:42;101203.47;;;4.79;100.00
48888;BME280;42598;53.802;-1.632;2023-02-02T02:08:14;101207.89;;;4.31;100.00
48888;BME280;42598;53.802;-1.632;2023-02-02T02:10:42;101220.71;;;4.57;100.00
48888;BME280;42598;53.802;-1.632;2023-02-02T02:13:10;101212.20;;;4.53;100.00
48888;BME280;42598;53.802;-1.632;2023-02-02T02:15:42;101227.18;;;4.77;100.00
48888;BME280;42598;53.802;-1.632;2023-02-02T02:18:22;101237.91;;;5.12;100.00
48888;BME280;42598;53.802;-1.632;2023-02-02T02:21:46;101238.01;;;5.40;100.00
48888;BME280;42598;53.802;-1.632;2023-02-02T02:24:37;101246.75;;;4.88;100.00
48888;BME280;42598;53.802;-1.632;2023-02-02T02:27:35;101237.03;;;5.41;100.00
48888;BME280;42598;53.802;-1.632;2023-02-02T02:30:18;101259.80;;;4.82;100.00
48888;BME280;42598;53.802;-1.632;2023-02-02T02:32:55;101241.22;;;5.13;100.00
48888;BME280;42598;53.802;-1.632;2023-02-02T02:35:30;101248.10;;;4.95;100.00
48888;BME280;42598;53.802;-1.632;2023-02-02T02:38:04;101226.64;;;4.15;100.00
48888;BME280;42598;53.802;-1.632;2023-02-02T02:40:36;101224.67;;;4.66;100.00
48888;BME280;42598;53.802;-1.632;2023-02-02T02:43:09;101221.08;;;4.86;100.00
48888;BME280;42598;53.802;-1.632;2023-02-02T02:45:40;101222.45;;;4.41;100.00
48888;BME280;42598;53.802;-1.632;2023-02-02T02:48:08;101216.89;;;4.88;100.00
48888;BME280;42598;53.802;-1.632;2023-02-02T02:50:35;101208.71;;;4.97;100.00
48888;BME280;42598;53.802;-1.632;2023-02-02T02:53:05;101210.99;;;4.81;100.00
48888;BME280;42598;53.802;-1.632;2023-02-02T02:55:41;101198.00;;;4.90;100.00
48888;BME280;42598;53.802;-1.632;2023-02-02T02:58:17;101193.75;;;5.21;100.00
48888;BME280;42598;53.802;-1.632;2023-02-02T03:00:56;101182.22;;;4.71;100.00
48888;BME280;42598;53.802;-1.632;2023-02-02T03:03:34;101187.56;;;4.13;100.00
48888;BME280;42598;53.802;-1.632;2023-02-02T03:06:11;101194.70;;;4.63;100.00
48888;BME280;42598;53.802;-1.632;2023-02-02T03:08:46;101190.81;;;4.95;100.00
48888;BME280;42598;53.802;-1.632;2023-02-02T03:11:15;101199.01;;;4.63;100.00
48888;BME280;42598;53.802;-1.632;2023-02-02T03:13:42;101191.17;;;5.14;100.00
48888;BME280;42598;53.802;-1.632;2023-02-02T03:16:10;101187.81;;;5.23;100.00
48888;BME280;42598;53.802;-1.632;2023-02-02T03:18:37;101184.14;;;5.56;100.00
48888;BME280;42598;53.802;-1.632;2023-02-02T03:21:05;101190.93;;;4.98;100.00
48888;BME280;42598;53.802;-1.632;2023-02-02T03:23:32;101179.60;;;5.58;100.00
48888;BME280;42598;53.802;-1.632;2023-02-02T03:26:00;101185.24;;;5.15;100.00
48888;BME280;42598;53.802;-1.632;2023-02-02T03:28:28;101187.06;;;5.60;100.00
48888;BME280;42598;53.802;-1.632;2023-02-02T03:30:58;101190.17;;;5.03;100.00
48888;BME280;42598;53.802;-1.632;2023-02-02T03:33:26;101178.80;;;4.53;100.00
48888;BME280;42598;53.802;-1.632;2023-02-02T03:35:53;101166.21;;;4.69;100.00
48888;BME280;42598;53.802;-1.632;2023-02-02T03:38:21;101170.09;;;4.81;100.00
48888;BME280;42598;53.802;-1.632;2023-02-02T03:40:49;101162.44;;;4.96;100.00
48888;BME280;42598;53.802;-1.632;2023-02-02T03:43:19;101153.97;;;4.97;100.00
48888;BME280;42598;53.802;-1.632;2023-02-02T03:45:47;101162.95;;;5.12;100.00
48888;BME280;42598;53.802;-1.632;2023-02-02T03:48:14;101154.30;;;5.37;100.00
48888;BME280;42598;53.802;-1.632;2023-02-02T03:50:41;101157.79;;;5.19;100.00
48888;BME280;42598;53.802;-1.632;2023-02-02T03:53:08;101175.73;;;4.66;100.00
48888;BME280;42598;53.802;-1.632;2023-02-02T03:55:35;101174.63;;;4.90;100.00
48888;BME280;42598;53.802;-1.632;2023-02-02T03:58:02;101171.64;;;4.88;100.00
48888;BME280;42598;53.802;-1.632;2023-02-02T04:00:29;101176.19;;;4.77;100.00
48888;BME280;42598;53.802;-1.632;2023-02-02T04:02:57;101159.26;;;5.28;100.00
48888;BME280;42598;53.802;-1.632;2023-02-02T04:05:24;101150.12;;;5.67;100.00
48888;BME280;42598;53.802;-1.632;2023-02-02T04:07:51;101151.27;;;5.26;100.00
48888;BME280;42598;53.802;-1.632;2023-02-02T04:10:19;101141.16;;;5.55;100.00
48888;BME280;42598;53.802;-1.632;2023-02-02T04:12:46;101148.54;;;5.41;100.00
48888;BME280;42598;53.802;-1.632;2023-02-02T04:15:14;101155.77;;;5.26;100.00
48888;BME280;42598;53.802;-1.632;2023-02-02T04:17:42;101150.81;;;5.26;100.00
48888;BME280;42598;53.802;-1.632;2023-02-02T04:20:10;101161.79;;;5.23;100.00
48888;BME280;42598;53.802;-1.632;2023-02-02T04:22:37;101164.82;;;4.85;100.00
48888;BME280;42598;53.802;-1.632;2023-02-02T04:25:05;101164.33;;;5.20;100.00
48888;BME280;42598;53.802;-1.632;2023-02-02T04:27:32;101175.63;;;5.05;100.00
48888;BME280;42598;53.802;-1.632;2023-02-02T04:29:58;101172.35;;;5.30;100.00
48888;BME280;42598;53.802;-1.632;2023-02-02T04:32:25;101173.50;;;4.53;100.00
48888;BME280;42598;53.802;-1.632;2023-02-02T04:34:52;101189.97;;;4.82;100.00
48888;BME280;42598;53.802;-1.632;2023-02-02T04:37:19;101175.82;;;4.85;100.00
48888;BME280;42598;53.802;-1.632;2023-02-02T04:39:47;101177.97;;;4.92;100.00
48888;BME280;42598;53.802;-1.632;2023-02-02T04:42:14;101166.98;;;4.77;100.00
48888;BME280;42598;53.802;-1.632;2023-02-02T04:44:42;101163.88;;;4.98;100.00
48888;BME280;42598;53.802;-1.632;2023-02-02T04:47:09;101156.47;;;5.06;100.00
48888;BME280;42598;53.802;-1.632;2023-02-02T04:49:36;101156.27;;;4.71;100.00
48888;BME280;42598;53.802;-1.632;2023-02-02T04:52:04;101160.28;;;4.85;100.00
48888;BME280;42598;53.802;-1.632;2023-02-02T04:54:31;101151.20;;;4.86;100.00
48888;BME280;42598;53.802;-1.632;2023-02-02T04:56:59;101149.44;;;5.14;100.00
48888;BME280;42598;53.802;-1.632;2023-02-02T04:59:27;101151.32;;;5.06;100.00
48888;BME280;42598;53.802;-1.632;2023-02-02T05:01:55;101138.30;;;4.93;100.00
48888;BME280;42598;53.802;-1.632;2023-02-02T05:04:22;101144.33;;;5.28;100.00
48888;BME280;42598;53.802;-1.632;2023-02-02T05:06:50;101151.12;;;4.47;100.00
48888;BME280;42598;53.802;-1.632;2023-02-02T05:09:17;101149.21;;;5.40;100.00
48888;BME280;42598;53.802;-1.632;2023-02-02T05:11:44;101159.74;;;4.74;100.00
48888;BME280;42598;53.802;-1.632;2023-02-02T05:14:11;101159.53;;;5.47;100.00
48888;BME280;42598;53.802;-1.632;2023-02-02T05:16:39;101168.25;;;5.28;100.00
48888;BME280;42598;53.802;-1.632;2023-02-02T05:19:06;101182.07;;;4.82;100.00
48888;BME280;42598;53.802;-1.632;2023-02-02T05:21:33;101181.77;;;4.99;100.00
48888;BME280;42598;53.802;-1.632;2023-02-02T05:24:00;101183.86;;;5.05;100.00
48888;BME280;42598;53.802;-1.632;2023-02-02T05:26:27;101183.56;;;4.87;100.00
48888;BME280;42598;53.802;-1.632;2023-02-02T05:28:55;101178.39;;;5.18;100.00
48888;BME280;42598;53.802;-1.632;2023-02-02T05:31:22;101182.84;;;5.34;100.00
48888;BME280;42598;53.802;-1.632;2023-02-02T05:33:49;101182.57;;;5.69;100.00
48888;BME280;42598;53.802;-1.632;2023-02-02T05:36:16;101183.80;;;5.72;100.00
48888;BME280;42598;53.802;-1.632;2023-02-02T05:38:43;101181.20;;;5.88;100.00
48888;BME280;42598;53.802;-1.632;2023-02-02T05:41:10;101185.36;;;5.69;100.00
48888;BME280;42598;53.802;-1.632;2023-02-02T05:43:38;101195.42;;;5.35;100.00
48888;BME280;42598;53.802;-1.632;2023-02-02T05:46:05;101204.83;;;5.22;100.00
48888;BME280;42598;53.802;-1.632;2023-02-02T05:48:31;101200.41;;;5.76;100.00
48888;BME280;42598;53.802;-1.632;2023-02-02T05:51:02;101209.41;;;5.32;100.00
48888;BME280;42598;53.802;-1.632;2023-02-02T05:53:31;101211.57;;;6.36;100.00
48888;BME280;42598;53.802;-1.632;2023-02-02T05:55:59;101210.20;;;6.93;100.00
48888;BME280;42598;53.802;-1.632;2023-02-02T05:58:27;101213.77;;;6.16;100.00
48888;BME280;42598;53.802;-1.632;2023-02-02T06:00:54;101222.11;;;6.18;100.00
48888;BME280;42598;53.802;-1.632;2023-02-02T06:03:21;101229.80;;;5.37;100.00
48888;BME280;42598;53.802;-1.632;2023-02-02T06:05:48;101233.97;;;5.29;100.00
48888;BME280;42598;53.802;-1.632;2023-02-02T06:08:15;101236.22;;;5.57;100.00
48888;BME280;42598;53.802;-1.632;2023-02-02T06:10:43;101239.85;;;5.84;100.00
48888;BME280;42598;53.802;-1.632;2023-02-02T06:13:10;101236.12;;;5.84;100.00
48888;BME280;42598;53.802;-1.632;2023-02-02T06:15:38;101243.12;;;5.75;100.00
48888;BME280;42598;53.802;-1.632;2023-02-02T06:18:05;101239.02;;;5.39;100.00
48888;BME280;42598;53.802;-1.632;2023-02-02T06:20:31;101249.96;;;5.43;100.00
48888;BME280;42598;53.802;-1.632;2023-02-02T06:22:58;101267.00;;;5.84;100.00
48888;BME280;42598;53.802;-1.632;2023-02-02T06:25:26;101260.68;;;5.84;100.00
48888;BME280;42598;53.802;-1.632;2023-02-02T06:27:54;101257.75;;;5.91;100.00
48888;BME280;42598;53.802;-1.632;2023-02-02T06:30:22;101262.00;;;5.81;100.00
48888;BME280;42598;53.802;-1.632;2023-02-02T06:32:49;101257.91;;;5.97;100.00
48888;BME280;42598;53.802;-1.632;2023-02-02T06:35:17;101258.98;;;6.42;100.00
48888;BME280;42598;53.802;-1.632;2023-02-02T06:37:45;101255.54;;;6.10;100.00
48888;BME280;42598;53.802;-1.632;2023-02-02T06:40:12;101254.70;;;6.20;100.00
48888;BME280;42598;53.802;-1.632;2023-02-02T06:42:39;101269.31;;;6.58;100.00
48888;BME280;42598;53.802;-1.632;2023-02-02T06:45:07;101257.48;;;6.64;100.00
48888;BME280;42598;53.802;-1.632;2023-02-02T06:47:35;101255.99;;;6.09;100.00
48888;BME280;42598;53.802;-1.632;2023-02-02T06:50:02;101252.61;;;5.88;100.00
48888;BME280;42598;53.802;-1.632;2023-02-02T06:52:29;101248.96;;;5.72;100.00
48888;BME280;42598;53.802;-1.632;2023-02-02T06:54:56;101247.45;;;6.05;100.00
48888;BME280;42598;53.802;-1.632;2023-02-02T06:57:23;101255.93;;;5.88;100.00
48888;BME280;42598;53.802;-1.632;2023-02-02T06:59:49;101254.88;;;5.79;100.00
48888;BME280;42598;53.802;-1.632;2023-02-02T07:02:16;101257.35;;;6.84;100.00
48888;BME280;42598;53.802;-1.632;2023-02-02T07:04:43;101250.71;;;6.27;100.00
48888;BME280;42598;53.802;-1.632;2023-02-02T07:07:10;101260.24;;;5.63;100.00
48888;BME280;42598;53.802;-1.632;2023-02-02T07:09:37;101250.58;;;5.72;100.00
48888;BME280;42598;53.802;-1.632;2023-02-02T07:12:04;101250.56;;;5.97;100.00
48888;BME280;42598;53.802;-1.632;2023-02-02T07:14:32;101259.37;;;5.44;100.00
48888;BME280;42598;53.802;-1.632;2023-02-02T07:16:58;101270.17;;;5.77;100.00
48888;BME280;42598;53.802;-1.632;2023-02-02T07:19:26;101252.11;;;6.14;100.00
48888;BME280;42598;53.802;-1.632;2023-02-02T07:21:53;101248.59;;;5.56;100.00
48888;BME280;42598;53.802;-1.632;2023-02-02T07:24:20;101247.01;;;5.66;100.00
48888;BME280;42598;53.802;-1.632;2023-02-02T07:26:47;101249.32;;;5.72;100.00
48888;BME280;42598;53.802;-1.632;2023-02-02T07:29:14;101247.11;;;5.59;100.00
48888;BME280;42598;53.802;-1.632;2023-02-02T07:31:42;101245.92;;;5.61;100.00
48888;BME280;42598;53.802;-1.632;2023-02-02T07:34:09;101239.49;;;6.11;100.00
48888;BME280;42598;53.802;-1.632;2023-02-02T07:36:36;101257.46;;;5.31;100.00
48888;BME280;42598;53.802;-1.632;2023-02-02T07:39:04;101254.36;;;5.22;100.00
48888;BME280;42598;53.802;-1.632;2023-02-02T07:41:33;101257.44;;;5.24;100.00
48888;BME280;42598;53.802;-1.632;2023-02-02T07:44:01;101239.13;;;5.36;100.00
48888;BME280;42598;53.802;-1.632;2023-02-02T07:46:29;101239.86;;;5.39;100.00
48888;BME280;42598;53.802;-1.632;2023-02-02T07:48:56;101237.75;;;5.35;100.00
48888;BME280;42598;53.802;-1.632;2023-02-02T07:51:24;101227.74;;;5.31;100.00
48888;BME280;42598;53.802;-1.632;2023-02-02T07:53:53;101218.38;;;5.45;100.00
48888;BME280;42598;53.802;-1.632;2023-02-02T07:56:22;101207.83;;;5.33;100.00
48888;BME280;42598;53.802;-1.632;2023-02-02T07:58:51;101206.72;;;5.54;100.00
48888;BME280;42598;53.802;-1.632;2023-02-02T08:01:18;101211.59;;;5.36;100.00
48888;BME280;42598;53.802;-1.632;2023-02-02T08:03:45;101208.38;;;5.84;100.00
48888;BME280;42598;53.802;-1.632;2023-02-02T08:06:16;101213.16;;;5.65;100.00
48888;BME280;42598;53.802;-1.632;2023-02-02T08:08:44;101199.99;;;5.78;100.00
48888;BME280;42598;53.802;-1.632;2023-02-02T08:11:13;101208.58;;;6.34;100.00
48888;BME280;42598;53.802;-1.632;2023-02-02T08:13:41;101204.50;;;5.75;100.00
48888;BME280;42598;53.802;-1.632;2023-02-02T08:16:10;101220.33;;;5.69;100.00
48888;BME280;42598;53.802;-1.632;2023-02-02T08:18:37;101224.15;;;6.04;100.00
48888;BME280;42598;53.802;-1.632;2023-02-02T08:21:09;101222.69;;;5.45;100.00
48888;BME280;42598;53.802;-1.632;2023-02-02T08:23:38;101226.65;;;5.24;100.00
48888;BME280;42598;53.802;-1.632;2023-02-02T08:26:08;101219.70;;;5.43;100.00
48888;BME280;42598;53.802;-1.632;2023-02-02T08:28:36;101219.71;;;5.00;100.00
48888;BME280;42598;53.802;-1.632;2023-02-02T08:31:04;101229.87;;;5.24;100.00
48888;BME280;42598;53.802;-1.632;2023-02-02T08:33:32;101211.09;;;5.51;100.00
48888;BME280;42598;53.802;-1.632;2023-02-02T08:35:59;101217.07;;;6.06;100.00
48888;BME280;42598;53.802;-1.632;2023-02-02T08:38:26;101222.87;;;5.98;100.00
48888;BME280;42598;53.802;-1.632;2023-02-02T08:40:52;101223.08;;;5.45;100.00
48888;BME280;42598;53.802;-1.632;2023-02-02T08:43:20;101224.38;;;5.58;100.00
48888;BME280;42598;53.802;-1.632;2023-02-02T08:45:48;101218.54;;;5.76;100.00
48888;BME280;42598;53.802;-1.632;2023-02-02T08:48:15;101228.05;;;5.68;100.00
48888;BME280;42598;53.802;-1.632;2023-02-02T08:50:42;101247.33;;;5.43;100.00
48888;BME280;42598;53.802;-1.632;2023-02-02T08:53:09;101244.42;;;5.51;100.00
48888;BME280;42598;53.802;-1.632;2023-02-02T08:55:36;101262.79;;;5.77;100.00
48888;BME280;42598;53.802;-1.632;2023-02-02T08:58:04;101262.37;;;5.61;100.00
48888;BME280;42598;53.802;-1.632;2023-02-02T09:00:30;101245.98;;;5.80;100.00
48888;BME280;42598;53.802;-1.632;2023-02-02T09:02:57;101251.54;;;6.03;100.00
48888;BME280;42598;53.802;-1.632;2023-02-02T09:05:24;101249.53;;;6.28;100.00
48888;BME280;42598;53.802;-1.632;2023-02-02T09:07:52;101247.51;;;5.92;100.00
48888;BME280;42598;53.802;-1.632;2023-02-02T09:10:19;101250.34;;;6.06;100.00
48888;BME280;42598;53.802;-1.632;2023-02-02T09:12:47;101261.66;;;5.80;100.00
48888;BME280;42598;53.802;-1.632;2023-02-02T09:15:15;101250.85;;;6.15;100.00
48888;BME280;42598;53.802;-1.632;2023-02-02T09:17:42;101260.41;;;6.33;100.00
48888;BME280;42598;53.802;-1.632;2023-02-02T09:20:10;101237.08;;;6.19;100.00
48888;BME280;42598;53.802;-1.632;2023-02-02T09:22:38;101239.88;;;5.70;100.00
48888;BME280;42598;53.802;-1.632;2023-02-02T09:25:06;101254.96;;;6.39;100.00
48888;BME280;42598;53.802;-1.632;2023-02-02T09:27:36;101250.74;;;6.17;100.00
48888;BME280;42598;53.802;-1.632;2023-02-02T09:30:04;101254.66;;;6.52;100.00
48888;BME280;42598;53.802;-1.632;2023-02-02T09:32:31;101255.96;;;6.29;100.00
48888;BME280;42598;53.802;-1.632;2023-02-02T09:34:58;101260.31;;;6.19;100.00
48888;BME280;42598;53.802;-1.632;2023-02-02T09:37:25;101258.65;;;6.46;100.00
48888;BME280;42598;53.802;-1.632;2023-02-02T09:39:52;101263.55;;;6.43;100.00
48888;BME280;42598;53.802;-1.632;2023-02-02T09:42:43;101269.51;;;6.57;100.00
48888;BME280;42598;53.802;-1.632;2023-02-02T09:45:21;101278.78;;;7.18;100.00
48888;BME280;42598;53.802;-1.632;2023-02-02T09:47:54;101276.75;;;6.58;100.00
48888;BME280;42598;53.802;-1.632;2023-02-02T09:50:30;101299.88;;;6.12;100.00
48888;BME280;42598;53.802;-1.632;2023-02-02T09:53:03;101301.68;;;6.39;100.00
48888;BME280;42598;53.802;-1.632;2023-02-02T09:55:35;101294.84;;;6.27;100.00
48888;BME280;42598;53.802;-1.632;2023-02-02T09:58:09;101295.20;;;6.81;100.00
48888;BME280;42598;53.802;-1.632;2023-02-02T10:00:44;101304.36;;;6.68;100.00
48888;BME280;42598;53.802;-1.632;2023-02-02T10:03:16;101298.05;;;7.55;100.00
48888;BME280;42598;53.802;-1.632;2023-02-02T10:05:52;101303.93;;;7.48;100.00
48888;BME280;42598;53.802;-1.632;2023-02-02T10:08:28;101307.96;;;6.86;100.00
48888;BME280;42598;53.802;-1.632;2023-02-02T10:11:02;101312.33;;;6.95;100.00
48888;BME280;42598;53.802;-1.632;2023-02-02T10:13:33;101300.52;;;6.88;100.00
48888;BME280;42598;53.802;-1.632;2023-02-02T10:16:06;101306.78;;;6.55;100.00
48888;BME280;42598;53.802;-1.632;2023-02-02T10:18:43;101293.03;;;6.53;100.00
48888;BME280;42598;53.802;-1.632;2023-02-02T10:21:19;101291.72;;;7.27;100.00
48888;BME280;42598;53.802;-1.632;2023-02-02T10:23:49;101292.32;;;7.31;100.00
48888;BME280;42598;53.802;-1.632;2023-02-02T10:26:18;101290.70;;;6.54;100.00
48888;BME280;42598;53.802;-1.632;2023-02-02T10:28:58;101283.11;;;7.84;100.00
48888;BME280;42598;53.802;-1.632;2023-02-02T10:31:39;101288.08;;;8.05;100.00
48888;BME280;42598;53.802;-1.632;2023-02-02T10:34:14;101307.51;;;7.08;100.00
48888;BME280;42598;53.802;-1.632;2023-02-02T10:36:50;101295.35;;;7.17;100.00
48888;BME280;42598;53.802;-1.632;2023-02-02T10:39:27;101306.12;;;7.09;100.00
48888;BME280;42598;53.802;-1.632;2023-02-02T10:42:08;101316.20;;;6.36;100.00
48888;BME280;42598;53.802;-1.632;2023-02-02T10:44:45;101311.18;;;6.32;100.00
48888;BME280;42598;53.802;-1.632;2023-02-02T10:47:21;101299.30;;;6.24;100.00
48888;BME280;42598;53.802;-1.632;2023-02-02T10:49:57;101302.26;;;7.35;100.00
48888;BME280;42598;53.802;-1.632;2023-02-02T10:52:30;101299.92;;;6.94;100.00
48888;BME280;42598;53.802;-1.632;2023-02-02T10:55:02;101312.59;;;7.09;100.00
48888;BME280;42598;53.802;-1.632;2023-02-02T10:57:44;101314.92;;;6.57;100.00
48888;BME280;42598;53.802;-1.632;2023-02-02T11:00:19;101314.11;;;6.57;100.00
48888;BME280;42598;53.802;-1.632;2023-02-02T11:02:47;101317.68;;;6.52;100.00
48888;BME280;42598;53.802;-1.632;2023-02-02T11:05:21;101332.21;;;6.90;100.00
48888;BME280;42598;53.802;-1.632;2023-02-02T11:07:52;101322.71;;;6.94;100.00
48888;BME280;42598;53.802;-1.632;2023-02-02T11:10:20;101328.70;;;6.40;100.00
48888;BME280;42598;53.802;-1.632;2023-02-02T11:12:48;101314.97;;;6.63;100.00
48888;BME280;42598;53.802;-1.632;2023-02-02T11:15:27;101313.66;;;6.29;100.00
48888;BME280;42598;53.802;-1.632;2023-02-02T11:17:54;101318.40;;;6.35;100.00
48888;BME280;42598;53.802;-1.632;2023-02-02T11:20:23;101309.90;;;6.42;100.00
48888;BME280;42598;53.802;-1.632;2023-02-02T11:23:01;101311.89;;;6.39;100.00
48888;BME280;42598;53.802;-1.632;2023-02-02T11:25:31;101305.02;;;6.70;100.00
48888;BME280;42598;53.802;-1.632;2023-02-02T11:28:00;101299.26;;;6.53;100.00
48888;BME280;42598;53.802;-1.632;2023-02-02T11:30:36;101302.57;;;6.78;100.00
48888;BME280;42598;53.802;-1.632;2023-02-02T11:33:29;101311.68;;;7.15;100.00
48888;BME280;42598;53.802;-1.632;2023-02-02T11:35:59;101302.09;;;6.52;100.00
48888;BME280;42598;53.802;-1.632;2023-02-02T11:38:26;101289.72;;;7.03;100.00
48888;BME280;42598;53.802;-1.632;2023-02-02T11:40:58;101300.82;;;7.37;100.00
48888;BME280;42598;53.802;-1.632;2023-02-02T11:43:29;101303.36;;;7.35;100.00
48888;BME280;42598;53.802;-1.632;2023-02-02T11:45:59;101291.41;;;7.57;100.00
48888;BME280;42598;53.802;-1.632;2023-02-02T11:48:30;101298.57;;;7.05;100.00
48888;BME280;42598;53.802;-1.632;2023-02-02T11:51:21;101302.77;;;7.05;100.00
48888;BME280;42598;53.802;-1.632;2023-02-02T11:54:01;101303.05;;;7.12;100.00
48888;BME280;42598;53.802;-1.632;2023-02-02T11:56:29;101307.17;;;6.47;100.00
48888;BME280;42598;53.802;-1.632;2023-02-02T11:59:27;101306.91;;;6.73;100.00
48888;BME280;42598;53.802;-1.632;2023-02-02T12:02:22;101297.52;;;6.54;100.00
48888;BME280;42598;53.802;-1.632;2023-02-02T12:04:52;101294.21;;;7.27;100.00
48888;BME280;42598;53.802;-1.632;2023-02-02T12:07:25;101299.83;;;6.78;100.00
48888;BME280;42598;53.802;-1.632;2023-02-02T12:09:56;101283.69;;;7.01;100.00
48888;BME280;42598;53.802;-1.632;2023-02-02T12:12:36;101304.86;;;6.57;100.00
48888;BME280;42598;53.802;-1.632;2023-02-02T12:15:23;101297.79;;;6.55;100.00
48888;BME280;42598;53.802;-1.632;2023-02-02T12:18:01;101267.25;;;7.38;100.00
48888;BME280;42598;53.802;-1.632;2023-02-02T12:20:36;101269.83;;;6.54;100.00
48888;BME280;42598;53.802;-1.632;2023-02-02T12:23:20;101262.88;;;7.09;100.00
48888;BME280;42598;53.802;-1.632;2023-02-02T12:25:57;101263.45;;;6.20;100.00
48888;BME280;42598;53.802;-1.632;2023-02-02T12:28:42;101259.49;;;6.52;100.00
48888;BME280;42598;53.802;-1.632;2023-02-02T12:31:23;101253.15;;;6.20;100.00
48888;BME280;42598;53.802;-1.632;2023-02-02T12:33:55;101250.60;;;6.24;100.00
48888;BME280;42598;53.802;-1.632;2023-02-02T12:36:37;101248.90;;;6.29;100.00
48888;BME280;42598;53.802;-1.632;2023-02-02T12:39:19;101258.85;;;6.61;100.00
48888;BME280;42598;53.802;-1.632;2023-02-02T12:42:28;101250.66;;;6.08;100.00
48888;BME280;42598;53.802;-1.632;2023-02-02T12:45:14;101267.25;;;6.11;100.00
48888;BME280;42598;53.802;-1.632;2023-02-02T12:47:56;101264.83;;;6.07;100.00
48888;BME280;42598;53.802;-1.632;2023-02-02T12:50:30;101251.48;;;6.54;100.00
48888;BME280;42598;53.802;-1.632;2023-02-02T12:53:14;101259.94;;;5.91;100.00
48888;BME280;42598;53.802;-1.632;2023-02-02T12:55:50;101245.60;;;6.81;100.00
48888;BME280;42598;53.802;-1.632;2023-02-02T12:58:27;101246.49;;;6.36;100.00